sensor_id;sensor_type;location;lat;lon;timestamp;pressure;altitude;pressure_sealevel;temperature;humidity
21658;BME280;10990;48.174;9.782;2023-04-25T00:01:17;94743.47;;;7.61;100.00
21658;BME280;10990;48.174;9.782;2023-04-25T00:03:46;94742.84;;;7.67;100.00
21658;BME280;10990;48.174;9.782;2023-04-25T00:06:13;94743.72;;;7.76;100.00
21658;BME280;10990;48.174;9.782;2023-04-25T00:08:40;94757.09;;;7.82;100.00
21658;BME280;10990;48.174;9.782;2023-04-25T00:11:07;94767.16;;;7.87;100.00
21658;BME280;10990;48.174;9.782;2023-04-25T00:13:33;94780.00;;;7.90;100.00
21658;BME280;10990;48.174;9.782;2023-04-25T00:16:00;94778.00;;;7.84;100.00
21658;BME280;10990;48.174;9.782;2023-04-25T00:18:27;94782.06;;;7.78;100.00
21658;BME280;10990;48.174;9.782;2023-04-25T00:20:56;94779.50;;;7.86;100.00
21658;BME280;10990;48.174;9.782;2023-04-25T00:23:23;94773.25;;;7.88;100.00
21658;BME280;10990;48.174;9.782;2023-04-25T00:25:50;94760.28;;;7.68;100.00
21658;BME280;10990;48.174;9.782;2023-04-25T00:28:17;94752.31;;;7.78;100.00
21658;BME280;10990;48.174;9.782;2023-04-25T00:30:44;94749.03;;;7.84;100.00
21658;BME280;10990;48.174;9.782;2023-04-25T00:33:10;94733.81;;;7.70;100.00
21658;BME280;10990;48.174;9.782;2023-04-25T00:35:37;94729.94;;;7.82;100.00
21658;BME280;10990;48.174;9.782;2023-04-25T00:38:06;94726.50;;;7.81;100.00
21658;BME280;10990;48.174;9.782;2023-04-25T00:40:33;94709.38;;;7.77;100.00
21658;BME280;10990;48.174;9.782;2023-04-25T00:43:00;94708.75;;;7.57;100.00
21658;BME280;10990;48.174;9.782;2023-04-25T00:45:28;94672.41;;;7.61;100.00
21658;BME280;10990;48.174;9.782;2023-04-25T00:47:56;94656.47;;;7.62;100.00
21658;BME280;10990;48.174;9.782;2023-04-25T00:50:23;94637.91;;;7.64;100.00
21658;BME280;10990;48.174;9.782;2023-04-25T00:52:51;94626.78;;;7.44;100.00
21658;BME280;10990;48.174;9.782;2023-04-25T00:55:19;94598.25;;;7.57;100.00
21658;BME280;10990;48.174;9.782;2023-04-25T00:57:46;94561.97;;;7.35;100.00
21658;BME280;10990;48.174;9.782;2023-04-25T01:00:14;94523.50;;;7.42;100.00
21658;BME280;10990;48.174;9.782;2023-04-25T01:02:41;94504.66;;;7.55;100.00
21658;BME280;10990;48.174;9.782;2023-04-25T01:05:08;94524.19;;;7.44;100.00
21658;BME280;10990;48.174;9.782;2023-04-25T01:07:35;94517.44;;;7.41;100.00
21658;BME280;10990;48.174;9.782;2023-04-25T01:10:03;94508.97;;;7.22;100.00
21658;BME280;10990;48.174;9.782;2023-04-25T01:12:33;94463.56;;;7.11;100.00
21658;BME280;10990;48.174;9.782;2023-04-25T01:15:00;94419.34;;;7.07;100.00
21658;BME280;10990;48.174;9.782;2023-04-25T01:17:27;94381.91;;;7.13;100.00
21658;BME280;10990;48.174;9.782;2023-04-25T01:19:54;94356.13;;;7.25;100.00
21658;BME280;10990;48.174;9.782;2023-04-25T01:22:22;94343.78;;;7.17;100.00
21658;BME280;10990;48.174;9.782;2023-04-25T01:24:50;94336.22;;;7.22;100.00
21658;BME280;10990;48.174;9.782;2023-04-25T01:27:18;94332.94;;;7.20;100.00
21658;BME280;10990;48.174;9.782;2023-04-25T01:29:46;94316.84;;;7.23;100.00
21658;BME280;10990;48.174;9.782;2023-04-25T01:32:14;94295.47;;;7.26;100.00
21658;BME280;10990;48.174;9.782;2023-04-25T01:34:41;94284.00;;;7.35;100.00
21658;BME280;10990;48.174;9.782;2023-04-25T01:37:07;94281.19;;;7.29;100.00
21658;BME280;10990;48.174;9.782;2023-04-25T01:39:36;94261.28;;;7.26;100.00
21658;BME280;10990;48.174;9.782;2023-04-25T01:42:03;94273.13;;;7.30;100.00
21658;BME280;10990;48.174;9.782;2023-04-25T01:44:30;94280.69;;;7.25;100.00
21658;BME280;10990;48.174;9.782;2023-04-25T01:46:57;94268.84;;;7.46;100.00
21658;BME280;10990;48.174;9.782;2023-04-25T01:49:25;94284.47;;;7.39;100.00
21658;BME280;10990;48.174;9.782;2023-04-25T01:51:52;94296.81;;;7.30;100.00
21658;BME280;10990;48.174;9.782;2023-04-25T01:54:19;94311.09;;;7.36;100.00
21658;BME280;10990;48.174;9.782;2023-04-25T01:56:51;94306.97;;;7.25;100.00
21658;BME280;10990;48.174;9.782;2023-04-25T01:59:20;94310.09;;;7.29;100.00
21658;BME280;10990;48.174;9.782;2023-04-25T02:02:05;94313.22;;;7.16;100.00
21658;BME280;10990;48.174;9.782;2023-04-25T02:04:34;94294.78;;;7.00;100.00
21658;BME280;10990;48.174;9.782;2023-04-25T02:07:03;94249.63;;;7.04;100.00
21658;BME280;10990;48.174;9.782;2023-04-25T02:09:55;94216.59;;;7.02;100.00
21658;BME280;10990;48.174;9.782;2023-04-25T02:12:24;94210.34;;;6.94;100.00
21658;BME280;10990;48.174;9.782;2023-04-25T02:15:13;94188.81;;;6.74;100.00
21658;BME280;10990;48.174;9.782;2023-04-25T02:17:43;94165.66;;;6.78;100.00
21658;BME280;10990;48.174;9.782;2023-04-25T02:20:11;94143.66;;;6.79;100.00
21658;BME280;10990;48.174;9.782;2023-04-25T02:22:38;94137.06;;;6.75;100.00
21658;BME280;10990;48.174;9.782;2023-04-25T02:25:06;94111.44;;;6.61;100.00
21658;BME280;10990;48.174;9.782;2023-04-25T02:27:35;94094.88;;;6.68;100.00
21658;BME280;10990;48.174;9.782;2023-04-25T02:30:02;94069.09;;;6.72;100.00
21658;BME280;10990;48.174;9.782;2023-04-25T02:32:32;94053.50;;;6.70;100.00
21658;BME280;10990;48.174;9.782;2023-04-25T02:35:01;94044.97;;;6.85;100.00
21658;BME280;10990;48.174;9.782;2023-04-25T02:37:29;94040.84;;;6.74;100.00
21658;BME280;10990;48.174;9.782;2023-04-25T02:39:56;94027.25;;;6.62;100.00
21658;BME280;10990;48.174;9.782;2023-04-25T02:42:23;93997.66;;;6.85;100.00
21658;BME280;10990;48.174;9.782;2023-04-25T02:44:51;93995.00;;;6.93;100.00
21658;BME280;10990;48.174;9.782;2023-04-25T02:47:20;94003.06;;;6.91;100.00
21658;BME280;10990;48.174;9.782;2023-04-25T02:49:49;94018.97;;;6.98;100.00
21658;BME280;10990;48.174;9.782;2023-04-25T02:52:15;94042.13;;;6.94;100.00
21658;BME280;10990;48.174;9.782;2023-04-25T02:54:46;94054.13;;;7.05;100.00
21658;BME280;10990;48.174;9.782;2023-04-25T02:57:13;94058.38;;;6.98;100.00
21658;BME280;10990;48.174;9.782;2023-04-25T02:59:40;94056.25;;;7.10;100.00
21658;BME280;10990;48.174;9.782;2023-04-25T03:02:08;94065.75;;;7.11;100.00
21658;BME280;10990;48.174;9.782;2023-04-25T03:04:35;94074.00;;;7.00;100.00
21658;BME280;10990;48.174;9.782;2023-04-25T03:07:02;94079.78;;;6.79;100.00
21658;BME280;10990;48.174;9.782;2023-04-25T03:09:29;94066.59;;;6.87;100.00
21658;BME280;10990;48.174;9.782;2023-04-25T03:11:56;94050.03;;;6.78;100.00
21658;BME280;10990;48.174;9.782;2023-04-25T03:14:23;94022.81;;;6.71;100.00
21658;BME280;10990;48.174;9.782;2023-04-25T03:16:49;93993.09;;;6.70;100.00
21658;BME280;10990;48.174;9.782;2023-04-25T03:19:18;93960.44;;;6.65;100.00
21658;BME280;10990;48.174;9.782;2023-04-25T03:21:47;93938.88;;;6.78;100.00
21658;BME280;10990;48.174;9.782;2023-04-25T03:24:13;93919.56;;;6.54;100.00
21658;BME280;10990;48.174;9.782;2023-04-25T03:26:40;93887.84;;;6.64;100.00
21658;BME280;10990;48.174;9.782;2023-04-25T03:29:07;93864.53;;;6.69;100.00
21658;BME280;10990;48.174;9.782;2023-04-25T03:31:35;93849.09;;;6.66;100.00
21658;BME280;10990;48.174;9.782;2023-04-25T03:34:02;93831.53;;;6.66;100.00
21658;BME280;10990;48.174;9.782;2023-04-25T03:36:30;93800.28;;;6.80;100.00
21658;BME280;10990;48.174;9.782;2023-04-25T03:38:58;93773.66;;;6.83;100.00
21658;BME280;10990;48.174;9.782;2023-04-25T03:41:27;93757.47;;;6.71;100.00
21658;BME280;10990;48.174;9.782;2023-04-25T03:44:00;93726.06;;;6.78;100.00
21658;BME280;10990;48.174;9.782;2023-04-25T03:46:26;93693.78;;;6.92;100.00
21658;BME280;10990;48.174;9.782;2023-04-25T03:48:53;93691.66;;;6.64;100.00
21658;BME280;10990;48.174;9.782;2023-04-25T03:51:25;93672.88;;;6.76;100.00
21658;BME280;10990;48.174;9.782;2023-04-25T03:53:54;93646.03;;;6.65;100.00
21658;BME280;10990;48.174;9.782;2023-04-25T03:56:40;93634.38;;;6.68;100.00
21658;BME280;10990;48.174;9.782;2023-04-25T03:59:16;93616.63;;;6.47;100.00
21658;BME280;10990;48.174;9.782;2023-04-25T04:01:44;93719.63;;;6.57;100.00
21658;BME280;10990;48.174;9.782;2023-04-25T04:04:10;93716.94;;;6.42;100.00
21658;BME280;10990;48.174;9.782;2023-04-25T04:06:38;93688.16;;;6.49;100.00
21658;BME280;10990;48.174;9.782;2023-04-25T04:09:25;93671.91;;;6.54;100.00
21658;BME280;10990;48.174;9.782;2023-04-25T04:11:53;93669.13;;;6.47;100.00
21658;BME280;10990;48.174;9.782;2023-04-25T04:14:20;93684.38;;;6.51;100.00
21658;BME280;10990;48.174;9.782;2023-04-25T04:16:50;93682.34;;;6.62;100.00
21658;BME280;10990;48.174;9.782;2023-04-25T04:19:17;93681.59;;;6.76;100.00
21658;BME280;10990;48.174;9.782;2023-04-25T04:21:51;93713.16;;;6.45;100.00
21658;BME280;10990;48.174;9.782;2023-04-25T04:24:18;93699.91;;;6.61;100.00
21658;BME280;10990;48.174;9.782;2023-04-25T04:27:06;93710.28;;;6.55;100.00
21658;BME280;10990;48.174;9.782;2023-04-25T04:29:59;93713.63;;;6.48;100.00
21658;BME280;10990;48.174;9.782;2023-04-25T04:32:33;93717.06;;;6.49;100.00
21658;BME280;10990;48.174;9.782;2023-04-25T04:35:04;93718.78;;;6.34;100.00
21658;BME280;10990;48.174;9.782;2023-04-25T04:37:32;93719.25;;;6.37;100.00
21658;BME280;10990;48.174;9.782;2023-04-25T04:40:00;93717.44;;;6.38;100.00
21658;BME280;10990;48.174;9.782;2023-04-25T04:42:52;93710.56;;;6.37;100.00
21658;BME280;10990;48.174;9.782;2023-04-25T04:45:27;93706.03;;;6.54;100.00
21658;BME280;10990;48.174;9.782;2023-04-25T04:48:09;93729.69;;;6.54;100.00
21658;BME280;10990;48.174;9.782;2023-04-25T04:50:46;93754.03;;;6.39;100.00
21658;BME280;10990;48.174;9.782;2023-04-25T04:53:25;93759.75;;;6.43;100.00
21658;BME280;10990;48.174;9.782;2023-04-25T04:55:54;93764.19;;;6.42;100.00
21658;BME280;10990;48.174;9.782;2023-04-25T04:58:41;93772.06;;;6.42;100.00
21658;BME280;10990;48.174;9.782;2023-04-25T05:01:28;93792.22;;;6.42;100.00
21658;BME280;10990;48.174;9.782;2023-04-25T05:04:21;93816.91;;;6.24;100.00
21658;BME280;10990;48.174;9.782;2023-04-25T05:07:26;93817.06;;;6.39;100.00
21658;BME280;10990;48.174;9.782;2023-04-25T05:10:22;93830.78;;;6.49;100.00
21658;BME280;10990;48.174;9.782;2023-04-25T05:13:14;93853.44;;;6.50;100.00
21658;BME280;10990;48.174;9.782;2023-04-25T05:15:52;93882.78;;;6.62;100.00
21658;BME280;10990;48.174;9.782;2023-04-25T05:18:32;93902.63;;;6.73;100.00
21658;BME280;10990;48.174;9.782;2023-04-25T05:21:05;93920.75;;;6.99;100.00
21658;BME280;10990;48.174;9.782;2023-04-25T05:23:44;93952.03;;;7.17;100.00
21658;BME280;10990;48.174;9.782;2023-04-25T05:26:34;93965.34;;;7.55;100.00
21658;BME280;10990;48.174;9.782;2023-04-25T05:29:25;94003.72;;;7.72;100.00
21658;BME280;10990;48.174;9.782;2023-04-25T05:32:14;94025.63;;;7.96;100.00
21658;BME280;10990;48.174;9.782;2023-04-25T05:34:40;94064.34;;;8.18;100.00
21658;BME280;10990;48.174;9.782;2023-04-25T05:37:16;94090.63;;;7.95;100.00
21658;BME280;10990;48.174;9.782;2023-04-25T05:39:54;94100.19;;;7.88;100.00
21658;BME280;10990;48.174;9.782;2023-04-25T05:42:44;94103.13;;;7.93;100.00
21658;BME280;10990;48.174;9.782;2023-04-25T05:45:26;94110.31;;;8.07;100.00
21658;BME280;10990;48.174;9.782;2023-04-25T05:47:54;94108.69;;;8.29;100.00
21658;BME280;10990;48.174;9.782;2023-04-25T05:50:32;94134.63;;;8.49;100.00
21658;BME280;10990;48.174;9.782;2023-04-25T05:53:03;94158.81;;;8.75;100.00
21658;BME280;10990;48.174;9.782;2023-04-25T05:55:38;94181.16;;;9.11;100.00
21658;BME280;10990;48.174;9.782;2023-04-25T05:58:25;94254.94;;;9.19;100.00
21658;BME280;10990;48.174;9.782;2023-04-25T06:00:53;94305.72;;;9.21;100.00
21658;BME280;10990;48.174;9.782;2023-04-25T06:03:22;94342.25;;;9.01;100.00
21658;BME280;10990;48.174;9.782;2023-04-25T06:05:49;94351.34;;;8.98;100.00
21658;BME280;10990;48.174;9.782;2023-04-25T06:08:16;94352.16;;;9.30;100.00
21658;BME280;10990;48.174;9.782;2023-04-25T06:10:43;94368.00;;;9.76;100.00
21658;BME280;10990;48.174;9.782;2023-04-25T06:13:10;94414.69;;;10.22;100.00
21658;BME280;10990;48.174;9.782;2023-04-25T06:15:37;94476.78;;;10.49;100.00
21658;BME280;10990;48.174;9.782;2023-04-25T06:18:04;94526.06;;;10.65;100.00
21658;BME280;10990;48.174;9.782;2023-04-25T06:20:32;94614.09;;;10.50;100.00
21658;BME280;10990;48.174;9.782;2023-04-25T06:23:00;94645.88;;;11.11;100.00
21658;BME280;10990;48.174;9.782;2023-04-25T06:25:37;94702.19;;;11.43;100.00
21658;BME280;10990;48.174;9.782;2023-04-25T06:28:04;94763.13;;;11.81;100.00
21658;BME280;10990;48.174;9.782;2023-04-25T06:30:31;94805.13;;;11.92;100.00
21658;BME280;10990;48.174;9.782;2023-04-25T06:33:04;94836.09;;;12.29;100.00
21658;BME280;10990;48.174;9.782;2023-04-25T06:35:33;94884.91;;;12.35;100.00
21658;BME280;10990;48.174;9.782;2023-04-25T06:38:00;94906.69;;;12.83;100.00
21658;BME280;10990;48.174;9.782;2023-04-25T06:40:28;94943.53;;;13.31;100.00
21658;BME280;10990;48.174;9.782;2023-04-25T06:42:55;94964.25;;;13.86;100.00
21658;BME280;10990;48.174;9.782;2023-04-25T06:45:36;94990.75;;;14.16;100.00
21658;BME280;10990;48.174;9.782;2023-04-25T06:48:03;95032.09;;;14.19;100.00
21658;BME280;10990;48.174;9.782;2023-04-25T06:50:30;95056.78;;;14.49;100.00
21658;BME280;10990;48.174;9.782;2023-04-25T06:52:58;95066.50;;;15.21;100.00
21658;BME280;10990;48.174;9.782;2023-04-25T06:55:28;95085.72;;;14.37;100.00
21658;BME280;10990;48.174;9.782;2023-04-25T06:58:15;95084.66;;;14.17;100.00
21658;BME280;10990;48.174;9.782;2023-04-25T07:01:17;95079.81;;;13.76;100.00
21658;BME280;10990;48.174;9.782;2023-04-25T07:03:44;95074.22;;;13.71;100.00
21658;BME280;10990;48.174;9.782;2023-04-25T07:06:16;95082.66;;;14.55;100.00
21658;BME280;10990;48.174;9.782;2023-04-25T07:08:44;95091.28;;;14.06;100.00
21658;BME280;10990;48.174;9.782;2023-04-25T07:11:11;95085.53;;;14.02;100.00
21658;BME280;10990;48.174;9.782;2023-04-25T07:13:39;95088.53;;;13.55;100.00
21658;BME280;10990;48.174;9.782;2023-04-25T07:16:06;95085.50;;;12.82;100.00
21658;BME280;10990;48.174;9.782;2023-04-25T07:18:34;95077.28;;;12.92;100.00
21658;BME280;10990;48.174;9.782;2023-04-25T07:21:01;95067.06;;;12.34;100.00
21658;BME280;10990;48.174;9.782;2023-04-25T07:23:30;95063.56;;;12.42;100.00
21658;BME280;10990;48.174;9.782;2023-04-25T07:26:01;95048.56;;;12.26;100.00
21658;BME280;10990;48.174;9.782;2023-04-25T07:28:29;95040.56;;;12.03;100.00
21658;BME280;10990;48.174;9.782;2023-04-25T07:30:56;95037.84;;;12.20;100.00
21658;BME280;10990;48.174;9.782;2023-04-25T07:33:24;95043.59;;;12.23;100.00
21658;BME280;10990;48.174;9.782;2023-04-25T07:35:52;95051.53;;;12.54;100.00
21658;BME280;10990;48.174;9.782;2023-04-25T07:38:19;95048.22;;;12.52;100.00
21658;BME280;10990;48.174;9.782;2023-04-25T07:40:47;95047.28;;;12.45;100.00
21658;BME280;10990;48.174;9.782;2023-04-25T07:43:17;95081.72;;;12.22;100.00
21658;BME280;10990;48.174;9.782;2023-04-25T07:45:58;95078.06;;;11.84;100.00
21658;BME280;10990;48.174;9.782;2023-04-25T07:48:27;95071.84;;;11.60;100.00
21658;BME280;10990;48.174;9.782;2023-04-25T07:50:54;95071.22;;;11.50;100.00
21658;BME280;10990;48.174;9.782;2023-04-25T07:53:21;95057.22;;;11.81;100.00
21658;BME280;10990;48.174;9.782;2023-04-25T07:55:55;95063.13;;;11.43;100.00
21658;BME280;10990;48.174;9.782;2023-04-25T07:58:23;95058.88;;;11.74;100.00
21658;BME280;10990;48.174;9.782;2023-04-25T08:00:55;95062.03;;;11.77;100.00
21658;BME280;10990;48.174;9.782;2023-04-25T08:03:34;95065.09;;;11.50;100.00
21658;BME280;10990;48.174;9.782;2023-04-25T08:06:04;95065.06;;;11.58;100.00
21658;BME280;10990;48.174;9.782;2023-04-25T08:08:37;95070.97;;;11.68;100.00
21658;BME280;10990;48.174;9.782;2023-04-25T08:11:06;95059.75;;;11.66;100.00
21658;BME280;10990;48.174;9.782;2023-04-25T08:13:34;95064.09;;;11.51;100.00
21658;BME280;10990;48.174;9.782;2023-04-25T08:16:00;95071.56;;;11.39;100.00
21658;BME280;10990;48.174;9.782;2023-04-25T08:18:28;95056.97;;;11.51;100.00
21658;BME280;10990;48.174;9.782;2023-04-25T08:20:56;95053.50;;;11.51;100.00
21658;BME280;10990;48.174;9.782;2023-04-25T08:23:24;95043.28;;;11.31;100.00
21658;BME280;10990;48.174;9.782;2023-04-25T08:25:58;95035.88;;;11.18;100.00
21658;BME280;10990;48.174;9.782;2023-04-25T08:28:26;95037.88;;;10.92;100.00
21658;BME280;10990;48.174;9.782;2023-04-25T08:30:56;95027.63;;;11.05;100.00
21658;BME280;10990;48.174;9.782;2023-04-25T08:33:31;94997.22;;;10.93;100.00
21658;BME280;10990;48.174;9.782;2023-04-25T08:36:11;94964.06;;;11.21;100.00
21658;BME280;10990;48.174;9.782;2023-04-25T08:38:38;94958.13;;;11.11;100.00
21658;BME280;10990;48.174;9.782;2023-04-25T08:41:08;94962.94;;;11.16;100.00
21658;BME280;10990;48.174;9.782;2023-04-25T08:43:37;94979.16;;;11.13;100.00
21658;BME280;10990;48.174;9.782;2023-04-25T08:46:09;95010.03;;;11.29;100.00
21658;BME280;10990;48.174;9.782;2023-04-25T08:49:04;95070.81;;;10.73;100.00
21658;BME280;10990;48.174;9.782;2023-04-25T08:51:32;95074.78;;;11.02;100.00
21658;BME280;10990;48.174;9.782;2023-04-25T08:54:08;95069.41;;;11.42;100.00
21658;BME280;10990;48.174;9.782;2023-04-25T08:56:36;95083.19;;;10.97;100.00
21658;BME280;10990;48.174;9.782;2023-04-25T08:59:04;95071.59;;;11.06;100.00
21658;BME280;10990;48.174;9.782;2023-04-25T09:01:35;95068.63;;;11.09;100.00
21658;BME280;10990;48.174;9.782;2023-04-25T09:04:03;95056.72;;;11.21;100.00
21658;BME280;10990;48.174;9.782;2023-04-25T09:06:30;95059.19;;;11.23;100.00
21658;BME280;10990;48.174;9.782;2023-04-25T09:09:02;95063.47;;;11.40;100.00
21658;BME280;10990;48.174;9.782;2023-04-25T09:11:29;95058.72;;;11.11;100.00
21658;BME280;10990;48.174;9.782;2023-04-25T09:14:10;95059.38;;;10.97;100.00
21658;BME280;10990;48.174;9.782;2023-04-25T09:17:02;95053.75;;;10.92;100.00
21658;BME280;10990;48.174;9.782;2023-04-25T09:19:41;95081.06;;;10.60;100.00
21658;BME280;10990;48.174;9.782;2023-04-25T09:22:17;95075.41;;;10.54;100.00
21658;BME280;10990;48.174;9.782;2023-04-25T09:24:47;95048.03;;;10.05;100.00
21658;BME280;10990;48.174;9.782;2023-04-25T09:27:19;95000.00;;;9.51;100.00
21658;BME280;10990;48.174;9.782;2023-04-25T09:29:57;94958.31;;;9.20;100.00
21658;BME280;10990;48.174;9.782;2023-04-25T09:32:26;94930.06;;;9.04;100.00
21658;BME280;10990;48.174;9.782;2023-04-25T09:34:56;94872.34;;;9.09;100.00
21658;BME280;10990;48.174;9.782;2023-04-25T09:37:26;94840.50;;;8.94;100.00
21658;BME280;10990;48.174;9.782;2023-04-25T09:40:12;94799.63;;;8.90;100.00
21658;BME280;10990;48.174;9.782;2023-04-25T09:42:50;94781.63;;;8.78;100.00
21658;BME280;10990;48.174;9.782;2023-04-25T09:45:17;94751.66;;;8.79;100.00
21658;BME280;10990;48.174;9.782;2023-04-25T09:47:46;94728.78;;;9.20;100.00
21658;BME280;10990;48.174;9.782;2023-04-25T09:50:16;94730.22;;;8.98;100.00
21658;BME280;10990;48.174;9.782;2023-04-25T09:53:02;94703.22;;;8.96;100.00
21658;BME280;10990;48.174;9.782;2023-04-25T09:55:34;94710.06;;;8.56;100.00
21658;BME280;10990;48.174;9.782;2023-04-25T09:58:04;94701.53;;;8.70;100.00
21658;BME280;10990;48.174;9.782;2023-04-25T10:00:32;94664.31;;;9.06;100.00
21658;BME280;10990;48.174;9.782;2023-04-25T10:03:10;94663.81;;;8.86;100.00
21658;BME280;10990;48.174;9.782;2023-04-25T10:06:03;94649.97;;;8.76;100.00
21658;BME280;10990;48.174;9.782;2023-04-25T10:08:33;94629.03;;;8.74;100.00
21658;BME280;10990;48.174;9.782;2023-04-25T10:11:01;94598.03;;;9.09;100.00
21658;BME280;10990;48.174;9.782;2023-04-25T10:13:29;94619.81;;;8.79;100.00
21658;BME280;10990;48.174;9.782;2023-04-25T10:15:57;94628.03;;;8.92;100.00
21658;BME280;10990;48.174;9.782;2023-04-25T10:18:26;94672.25;;;8.90;100.00
21658;BME280;10990;48.174;9.782;2023-04-25T10:20:54;94681.44;;;8.86;100.00
21658;BME280;10990;48.174;9.782;2023-04-25T10:23:21;94685.72;;;8.70;100.00
21658;BME280;10990;48.174;9.782;2023-04-25T10:25:50;94698.09;;;8.86;100.00
21658;BME280;10990;48.174;9.782;2023-04-25T10:28:18;94720.50;;;8.90;100.00
21658;BME280;10990;48.174;9.782;2023-04-25T10:30:57;94728.91;;;8.86;100.00
21658;BME280;10990;48.174;9.782;2023-04-25T10:33:32;94726.47;;;8.42;100.00
21658;BME280;10990;48.174;9.782;2023-04-25T10:36:08;94684.22;;;8.68;100.00
21658;BME280;10990;48.174;9.782;2023-04-25T10:38:36;94668.44;;;8.84;100.00
21658;BME280;10990;48.174;9.782;2023-04-25T10:41:04;94647.16;;;8.86;100.00
21658;BME280;10990;48.174;9.782;2023-04-25T10:43:39;94617.34;;;8.85;100.00
21658;BME280;10990;48.174;9.782;2023-04-25T10:46:17;94601.69;;;8.84;100.00
21658;BME280;10990;48.174;9.782;2023-04-25T10:48:50;94577.47;;;8.72;100.00
21658;BME280;10990;48.174;9.782;2023-04-25T10:51:19;94534.66;;;8.53;100.00
21658;BME280;10990;48.174;9.782;2023-04-25T10:53:47;94500.72;;;8.50;100.00
21658;BME280;10990;48.174;9.782;2023-04-25T10:56:17;94477.16;;;8.65;100.00
21658;BME280;10990;48.174;9.782;2023-04-25T10:58:45;94468.41;;;8.16;100.00
21658;BME280;10990;48.174;9.782;2023-04-25T11:01:13;94418.69;;;8.21;100.00
21658;BME280;10990;48.174;9.782;2023-04-25T11:03:41;94374.41;;;8.24;100.00
21658;BME280;10990;48.174;9.782;2023-04-25T11:06:20;94332.63;;;8.13;100.00
21658;BME280;10990;48.174;9.782;2023-04-25T11:08:50;94306.72;;;8.41;100.00
21658;BME280;10990;48.174;9.782;2023-04-25T11:11:17;94252.34;;;8.57;100.00
21658;BME280;10990;48.174;9.782;2023-04-25T11:13:47;94265.25;;;8.74;100.00
21658;BME280;10990;48.174;9.782;2023-04-25T11:16:14;94251.28;;;8.97;100.00
21658;BME280;10990;48.174;9.782;2023-04-25T11:18:42;94283.13;;;8.95;100.00
21658;BME280;10990;48.174;9.782;2023-04-25T11:21:10;94348.53;;;8.92;100.00
21658;BME280;10990;48.174;9.782;2023-04-25T11:23:37;94338.44;;;9.04;100.00
21658;BME280;10990;48.174;9.782;2023-04-25T11:26:04;94336.22;;;9.24;100.00
21658;BME280;10990;48.174;9.782;2023-04-25T11:28:31;94334.72;;;9.52;100.00
21658;BME280;10990;48.174;9.782;2023-04-25T11:30:57;94387.19;;;9.16;100.00
21658;BME280;10990;48.174;9.782;2023-04-25T11:33:25;94404.81;;;9.24;100.00
21658;BME280;10990;48.174;9.782;2023-04-25T11:35:53;94440.72;;;9.25;100.00
21658;BME280;10990;48.174;9.782;2023-04-25T11:38:22;94463.94;;;8.90;100.00
21658;BME280;10990;48.174;9.782;2023-04-25T11:40:50;94412.19;;;9.28;100.00
21658;BME280;10990;48.174;9.782;2023-04-25T11:43:17;94422.41;;;9.23;100.00
21658;BME280;10990;48.174;9.782;2023-04-25T11:45:46;94499.88;;;8.66;100.00
21658;BME280;10990;48.174;9.782;2023-04-25T11:48:13;94478.41;;;8.94;100.00
21658;BME280;10990;48.174;9.782;2023-04-25T11:50:40;94499.06;;;8.58;100.00
21658;BME280;10990;48.174;9.782;2023-04-25T11:53:06;94462.81;;;8.60;100.00
21658;BME280;10990;48.174;9.782;2023-04-25T11:55:35;94441.41;;;8.71;100.00
21658;BME280;10990;48.174;9.782;2023-04-25T11:58:03;94454.91;;;8.68;100.00
21658;BME280;10990;48.174;9.782;2023-04-25T12:00:31;94441.28;;;8.48;100.00
21658;BME280;10990;48.174;9.782;2023-04-25T12:02:58;94428.03;;;8.64;100.00
21658;BME280;10990;48.174;9.782;2023-04-25T12:05:26;94397.69;;;8.85;100.00
21658;BME280;10990;48.174;9.782;2023-04-25T12:07:53;94435.66;;;8.35;100.00
21658;BME280;10990;48.174;9.782;2023-04-25T12:10:20;94441.91;;;8.42;100.00
21658;BME280;10990;48.174;9.782;2023-04-25T12:12:48;94460.16;;;8.35;100.00
21658;BME280;10990;48.174;9.782;2023-04-25T12:15:16;94472.38;;;8.28;100.00
21658;BME280;10990;48.174;9.782;2023-04-25T12:17:45;94475.97;;;7.86;100.00
21658;BME280;10990;48.174;9.782;2023-04-25T12:20:14;94436.31;;;8.20;100.00
21658;BME280;10990;48.174;9.782;2023-04-25T12:22:41;94407.69;;;8.25;100.00
21658;BME280;10990;48.174;9.782;2023-04-25T12:25:11;94386.38;;;8.68;100.00
21658;BME280;10990;48.174;9.782;2023-04-25T12:27:38;94402.81;;;8.70;100.00
21658;BME280;10990;48.174;9.782;2023-04-25T12:30:09;94396.59;;;9.10;100.00
21658;BME280;10990;48.174;9.782;2023-04-25T12:32:37;94434.41;;;8.86;100.00
21658;BME280;10990;48.174;9.782;2023-04-25T12:35:05;94453.44;;;8.41;100.00
21658;BME280;10990;48.174;9.782;2023-04-25T12:37:31;94417.00;;;8.69;100.00
21658;BME280;10990;48.174;9.782;2023-04-25T12:39:58;94427.75;;;8.67;100.00
21658;BME280;10990;48.174;9.782;2023-04-25T12:42:25;94444.69;;;8.32;100.00
21658;BME280;10990;48.174;9.782;2023-04-25T12:44:52;94408.78;;;8.56;100.00
21658;BME280;10990;48.174;9.782;2023-04-25T12:47:20;94403.16;;;8.75;100.00
21658;BME280;10990;48.174;9.782;2023-04-25T12:49:46;94406.69;;;8.43;100.00
21658;BME280;10990;48.174;9.782;2023-04-25T12:52:14;94409.00;;;8.46;100.00
21658;BME280;10990;48.174;9.782;2023-04-25T12:54:40;94436.34;;;8.45;100.00
21658;BME280;10990;48.174;9.782;2023-04-25T12:57:07;94401.56;;;8.58;100.00
21658;BME280;10990;48.174;9.782;2023-04-25T12:59:34;94387.22;;;8.52;100.00
21658;BME280;10990;48.174;9.782;2023-04-25T13:02:01;94358.53;;;8.73;100.00
21658;BME280;10990;48.174;9.782;2023-04-25T13:04:29;94372.34;;;8.75;100.00
21658;BME280;10990;48.174;9.782;2023-04-25T13:06:56;94424.44;;;8.65;100.00
21658;BME280;10990;48.174;9.782;2023-04-25T13:09:23;94453.78;;;8.46;100.00
21658;BME280;10990;48.174;9.782;2023-04-25T13:11:49;94455.53;;;8.70;100.00
21658;BME280;10990;48.174;9.782;2023-04-25T13:14:16;94450.91;;;8.88;100.00
21658;BME280;10990;48.174;9.782;2023-04-25T13:16:43;94475.19;;;8.51;100.00